Aérodrome :
LOGIN :

S'inscrire | Disclaimer

   EN    FR    IT 

 










Légende :    VFR   VFR Marginal   IFR   IFR Intensif   IFR Très Intensif
Visi : 
Plafond : 
>= 8 km
>= 3000ft
5 à 8 km
1000 à 3000 ft
1500m à 5 km
500 à 1000 ft
800 à 1500m
200 à 500 ft
< 800m
< 200 ft
Symboles :   Orages  Brouillard  Fortes neiges  Fortes précipitations  Vent > 20 kt
SIGMETs :   Divers  Orages  Givrage  Turbulence  Onde Orograph.  Cendres Volcan.






- Altitude de l'aérodrome : 82 ft
- Code IATA : QIE


LFMI - Istres

DERNIER METAR :
  • 071300Z AUTO 28009KT CAVOK 14/07 Q1020 NOSIG

METARs EXPIRÉS :
  • 071230Z AUTO 30008KT CAVOK 14/06 Q1020 NOSIG
  • 071200Z AUTO 32008KT CAVOK 14/07 Q1020 NOSIG
  • 071130Z AUTO 30008KT CAVOK 13/08 Q1021 NOSIG
  • 071100Z AUTO 31006KT CAVOK 12/07 Q1021 NOSIG
  • 071030Z AUTO 33004KT CAVOK 11/06 Q1021 NOSIG

TAF TAF LFMI
Valide du 07 à 09h jusqu'au 08 à 09h UTC


070800Z 0709/0809 VRB03KT CAVOK
BECMG 0709/0710 29010KT
BECMG 0722/0724 VRB03KT
PROB40
TEMPO 0800/0808 5000 BR NSC



MET'MAP, la Météo Aéronautique d'un coup d'oeil ! - Copyright ORBIFLY Décembre 2007 - Disclaimer

ORBIFLY MET'MAP TEAM :

Programmation & Développement : Alexandra Zaïnal
Sur une idée originale de : Baudouin d'Aumeries
Assistance à la programmation : Marc-Olivier Méhu
Soutien technique & logistique : Manuel Goepfert

Contact : metmap@orbifly.com




SOURCES & CREDITS :

   NOAA